createdAt,value
2023-01-22T00:01:13.657Z,9.43
2023-01-22T00:03:41.306Z,10.10
2023-01-22T00:06:08.992Z,8.70
2023-01-22T00:08:36.547Z,6.15
2023-01-22T00:11:04.106Z,10.77
2023-01-22T00:13:31.228Z,18.23
2023-01-22T00:15:58.953Z,6.70
2023-01-22T00:18:26.514Z,10.65
2023-01-22T00:20:54.228Z,7.50
2023-01-22T00:23:21.468Z,9.90
2023-01-22T00:25:48.631Z,10.48
2023-01-22T00:28:17.072Z,7.43
2023-01-22T00:30:44.514Z,10.10
2023-01-22T00:33:11.786Z,8.80
2023-01-22T00:35:39.116Z,8.30
2023-01-22T00:38:06.544Z,7.30
2023-01-22T00:40:33.620Z,7.60
2023-01-22T00:43:01.233Z,8.98
2023-01-22T00:45:28.587Z,9.32
2023-01-22T00:47:55.784Z,6.65
2023-01-22T00:50:22.864Z,7.78
2023-01-22T00:52:49.897Z,8.43
2023-01-22T00:55:17.056Z,9.27
2023-01-22T00:57:44.174Z,9.25
2023-01-22T01:00:11.984Z,6.20
2023-01-22T01:02:59.720Z,7.70
2023-01-22T01:05:26.947Z,11.25
2023-01-22T01:07:54.029Z,6.13
2023-01-22T01:10:21.190Z,12.25
2023-01-22T01:12:48.342Z,9.85
2023-01-22T01:15:15.684Z,6.93
2023-01-22T01:17:43.144Z,12.88
2023-01-22T01:20:10.587Z,11.35
2023-01-22T01:22:37.748Z,12.80
2023-01-22T01:25:05.297Z,9.85
2023-01-22T01:27:32.899Z,8.68
2023-01-22T01:30:00.015Z,9.05
2023-01-22T01:32:27.147Z,10.38
2023-01-22T01:34:54.406Z,6.15
2023-01-22T01:37:21.499Z,9.77
2023-01-22T01:39:52.629Z,11.45
2023-01-22T01:42:24.943Z,12.45
2023-01-22T01:45:11.861Z,10.10
2023-01-22T01:47:38.993Z,9.23
2023-01-22T01:50:06.477Z,9.35
2023-01-22T01:52:33.705Z,8.88
2023-01-22T01:55:01.221Z,10.55
2023-01-22T01:57:30.181Z,9.18
2023-01-22T01:59:58.234Z,9.23
2023-01-22T02:02:25.434Z,8.20
2023-01-22T02:04:54.306Z,9.55
2023-01-22T02:07:21.519Z,10.20
2023-01-22T02:09:49.983Z,10.25
2023-01-22T02:12:17.304Z,6.68
2023-01-22T02:14:46.143Z,5.45
2023-01-22T02:17:46.027Z,10.20
2023-01-22T02:20:13.351Z,9.32
2023-01-22T02:22:40.905Z,10.88
2023-01-22T02:25:08.507Z,8.77
2023-01-22T02:27:35.673Z,11.20
2023-01-22T02:30:06.777Z,10.10
2023-01-22T02:32:35.202Z,11.05
2023-01-22T02:35:02.416Z,9.02
2023-01-22T02:37:30.661Z,10.48
2023-01-22T02:39:57.924Z,12.20
2023-01-22T02:42:26.527Z,9.65
2023-01-22T02:44:54.108Z,10.52
2023-01-22T02:47:22.272Z,10.13
2023-01-22T02:49:49.586Z,12.35
2023-01-22T02:52:17.458Z,7.22
2023-01-22T02:54:46.704Z,10.52
2023-01-22T02:57:13.824Z,10.00
2023-01-22T02:59:43.592Z,8.15
2023-01-22T03:02:11.867Z,8.07
2023-01-22T03:04:39.183Z,11.27
2023-01-22T03:07:06.594Z,9.13
2023-01-22T03:09:33.913Z,9.98
2023-01-22T03:12:01.834Z,10.23
2023-01-22T03:14:52.812Z,10.43
2023-01-22T03:17:39.781Z,9.57
2023-01-22T03:20:27.117Z,8.40
2023-01-22T03:22:54.306Z,11.70
2023-01-22T03:25:21.443Z,12.65
2023-01-22T03:28:09.518Z,13.13
2023-01-22T03:30:39.040Z,11.60
2023-01-22T03:33:08.154Z,12.70
2023-01-22T03:35:35.906Z,9.60
2023-01-22T03:38:12.446Z,14.07
2023-01-22T03:40:40.150Z,9.48
2023-01-22T03:43:07.563Z,12.85
2023-01-22T03:45:35.189Z,9.15
2023-01-22T03:48:04.237Z,14.50
2023-01-22T03:50:37.172Z,10.15
2023-01-22T03:53:04.434Z,12.18
2023-01-22T03:55:33.088Z,7.93
2023-01-22T03:58:00.265Z,12.73
2023-01-22T04:00:27.444Z,10.50
2023-01-22T04:02:55.142Z,11.85
2023-01-22T04:05:26.950Z,9.43
2023-01-22T04:07:54.102Z,12.45
2023-01-22T04:10:25.820Z,12.80
2023-01-22T04:12:53.113Z,9.45
2023-01-22T04:15:22.632Z,15.23
2023-01-22T04:17:52.505Z,12.73
2023-01-22T04:20:32.427Z,16.85
2023-01-22T04:23:20.033Z,11.50
2023-01-22T04:25:48.582Z,9.65
2023-01-22T04:28:16.030Z,9.27
2023-01-22T04:30:45.337Z,13.75
2023-01-22T04:33:32.028Z,16.77
2023-01-22T04:36:05.197Z,11.98
2023-01-22T04:38:32.388Z,10.60
2023-01-22T04:40:59.518Z,14.70
2023-01-22T04:43:26.679Z,11.77
2023-01-22T04:45:53.807Z,10.45
2023-01-22T04:48:26.356Z,11.10
2023-01-22T04:50:53.725Z,9.93
2023-01-22T04:53:20.955Z,12.57
2023-01-22T04:55:48.141Z,11.15
2023-01-22T04:58:15.383Z,15.13
2023-01-22T05:00:42.805Z,10.10
2023-01-22T05:03:12.034Z,14.48
2023-01-22T05:05:41.471Z,11.70
2023-01-22T05:08:09.036Z,17.92
2023-01-22T05:10:38.442Z,12.75
2023-01-22T05:13:07.902Z,16.50
2023-01-22T05:15:36.279Z,7.97
2023-01-22T05:18:08.463Z,13.00
2023-01-22T05:20:37.689Z,10.27
2023-01-22T05:23:05.604Z,11.85
2023-01-22T05:25:33.046Z,15.60
2023-01-22T05:28:01.625Z,15.35
2023-01-22T05:30:49.321Z,15.82
2023-01-22T05:33:29.196Z,17.80
2023-01-22T05:35:57.627Z,13.25
2023-01-22T05:38:25.084Z,13.98
2023-01-22T05:40:53.269Z,11.20
2023-01-22T05:43:21.705Z,19.83
2023-01-22T05:45:54.360Z,14.13
2023-01-22T05:48:41.435Z,12.75
2023-01-22T05:51:15.593Z,12.45
2023-01-22T05:53:42.793Z,12.43
2023-01-22T05:56:10.379Z,11.43
2023-01-22T05:58:39.582Z,15.85
2023-01-22T06:01:07.539Z,14.07
2023-01-22T06:03:40.814Z,16.80
2023-01-22T06:06:09.185Z,14.05
2023-01-22T06:08:37.349Z,17.25
2023-01-22T06:11:06.234Z,12.88
2023-01-22T06:13:34.264Z,13.27
2023-01-22T06:16:09.787Z,13.43
2023-01-22T06:18:56.749Z,11.63
2023-01-22T06:21:27.186Z,10.27
2023-01-22T06:23:55.151Z,14.57
2023-01-22T06:26:22.711Z,13.02
2023-01-22T06:28:49.916Z,17.35
2023-01-22T06:31:17.126Z,15.68
2023-01-22T06:33:44.343Z,15.90
2023-01-22T06:36:15.124Z,12.55
2023-01-22T06:38:43.223Z,17.38
2023-01-22T06:41:15.010Z,13.70
2023-01-22T06:43:44.273Z,15.48
2023-01-22T06:46:11.595Z,13.65
2023-01-22T06:51:22.807Z,12.20
2023-01-22T06:53:50.105Z,15.95
2023-01-22T06:56:19.893Z,13.70
2023-01-22T06:58:47.507Z,17.65
2023-01-22T07:01:14.672Z,13.80
2023-01-22T07:03:42.660Z,16.13
2023-01-22T07:06:10.200Z,16.10
2023-01-22T07:08:37.303Z,13.85
2023-01-22T07:11:07.570Z,16.10
2023-01-22T07:13:35.224Z,10.20
2023-01-22T07:16:03.363Z,14.52
2023-01-22T07:18:30.785Z,14.23
2023-01-22T07:21:05.733Z,13.88
2023-01-22T07:23:32.928Z,17.73
2023-01-22T07:26:00.133Z,16.55
2023-01-22T07:28:27.315Z,14.00
2023-01-22T07:30:54.507Z,14.57
2023-01-22T07:33:21.629Z,18.85
2023-01-22T07:35:53.925Z,10.90
2023-01-22T07:40:47.933Z,12.68
2023-01-22T07:43:15.469Z,14.23
2023-01-22T07:45:42.712Z,16.33
2023-01-22T07:48:11.011Z,11.95
2023-01-22T07:50:40.395Z,12.35
2023-01-22T07:53:08.370Z,17.10
2023-01-22T07:55:35.493Z,15.65
2023-01-22T07:58:04.475Z,14.73
2023-01-22T08:00:32.158Z,13.07
2023-01-22T08:02:59.355Z,14.52
2023-01-22T08:05:26.601Z,12.77
2023-01-22T08:07:53.672Z,12.68
2023-01-22T08:10:21.118Z,14.20
2023-01-22T08:12:48.421Z,15.68
2023-01-22T08:15:15.865Z,15.43
2023-01-22T08:17:43.049Z,22.40
2023-01-22T08:20:10.809Z,12.00
2023-01-22T08:22:37.920Z,10.55
2023-01-22T08:25:05.275Z,15.63
2023-01-22T08:27:35.383Z,15.18
2023-01-22T08:30:03.274Z,13.45
2023-01-22T08:32:31.368Z,15.18
2023-01-22T08:34:58.610Z,13.68
2023-01-22T08:37:25.773Z,14.88
2023-01-22T08:39:52.918Z,20.33
2023-01-22T08:42:20.062Z,19.80
2023-01-22T08:44:47.227Z,17.50
2023-01-22T08:47:14.294Z,17.85
2023-01-22T08:49:41.392Z,14.10
2023-01-22T08:52:08.727Z,19.50
2023-01-22T08:54:35.835Z,22.55
2023-01-22T08:57:02.946Z,17.35
2023-01-22T08:59:31.135Z,13.13
2023-01-22T09:01:59.880Z,14.70
2023-01-22T09:04:27.601Z,14.80
2023-01-22T09:06:54.760Z,20.58
2023-01-22T09:09:22.158Z,16.55
2023-01-22T09:11:49.278Z,20.65
2023-01-22T09:14:16.449Z,15.82
2023-01-22T09:16:43.608Z,16.25
2023-01-22T09:19:11.235Z,11.10
2023-01-22T09:21:38.406Z,18.23
2023-01-22T09:24:05.953Z,18.17
2023-01-22T09:26:33.241Z,13.82
2023-01-22T09:29:04.417Z,18.60
2023-01-22T09:31:33.586Z,18.55
2023-01-22T09:34:00.711Z,15.73
2023-01-22T09:36:28.190Z,15.55
2023-01-22T09:38:55.793Z,45.13
2023-01-22T09:41:27.259Z,26.60
2023-01-22T09:44:00.926Z,22.45
2023-01-22T09:46:45.883Z,20.15
2023-01-22T09:49:17.167Z,18.92
2023-01-22T09:51:48.392Z,20.50
2023-01-22T09:54:17.563Z,16.02
2023-01-22T09:56:47.283Z,20.88
2023-01-22T09:59:17.450Z,14.95
2023-01-22T10:01:46.904Z,22.73
2023-01-22T10:04:20.802Z,22.35
2023-01-22T10:06:48.602Z,13.80
2023-01-22T10:09:17.146Z,17.52
2023-01-22T10:11:46.483Z,14.70
2023-01-22T10:14:16.357Z,17.17
2023-01-22T10:16:43.589Z,15.38
2023-01-22T10:22:00.897Z,16.90
2023-01-22T10:24:28.608Z,19.38
2023-01-22T10:26:56.278Z,17.13
2023-01-22T10:29:26.331Z,15.10
2023-01-22T10:31:55.103Z,18.25
2023-01-22T10:37:01.205Z,30.42
2023-01-22T10:39:28.311Z,31.10
2023-01-22T10:42:01.395Z,31.95
2023-01-22T10:44:28.571Z,39.55
2023-01-22T10:47:06.753Z,35.75
2023-01-22T10:52:05.244Z,30.70
2023-01-22T10:54:34.236Z,23.83
2023-01-22T10:57:21.230Z,19.10
2023-01-22T10:59:50.322Z,21.08
2023-01-22T11:02:20.885Z,20.55
2023-01-22T11:04:48.153Z,17.83
2023-01-22T11:07:19.412Z,17.60
2023-01-22T11:12:29.756Z,15.25
2023-01-22T11:15:02.675Z,17.75
2023-01-22T11:17:34.789Z,19.52
2023-01-22T11:20:04.195Z,19.25
2023-01-22T11:22:35.371Z,14.63
2023-01-22T11:25:02.783Z,21.88
2023-01-22T11:30:21.230Z,17.00
2023-01-22T11:33:08.379Z,14.32
2023-01-22T11:35:41.832Z,15.40
2023-01-22T11:38:16.304Z,15.27
2023-01-22T11:41:03.272Z,15.95
2023-01-22T11:46:30.594Z,21.90
2023-01-22T11:51:44.915Z,15.52
2023-01-22T11:59:40.312Z,17.38
2023-01-22T12:05:11.803Z,13.73
2023-01-22T12:13:10.077Z,16.45
2023-01-22T12:15:43.739Z,14.00
2023-01-22T12:18:30.844Z,13.48
2023-01-22T12:23:42.994Z,12.05
2023-01-22T12:26:13.889Z,14.43
2023-01-22T12:28:45.112Z,18.17
2023-01-22T12:31:17.530Z,17.35
2023-01-22T12:33:44.832Z,16.40
2023-01-22T12:36:16.525Z,14.20
2023-01-22T12:39:00.883Z,15.77
2023-01-22T12:44:36.100Z,15.77
2023-01-22T12:47:08.890Z,15.18
2023-01-22T12:49:45.203Z,14.48
2023-01-22T12:52:30.267Z,21.40
2023-01-22T12:54:57.652Z,13.70
2023-01-22T12:57:26.629Z,14.40
2023-01-22T12:59:55.653Z,14.60
2023-01-22T13:05:11.138Z,15.10
2023-01-22T13:07:41.191Z,13.43
2023-01-22T13:10:29.671Z,15.05
2023-01-22T13:12:58.837Z,15.30
2023-01-22T13:18:07.468Z,16.08
2023-01-22T13:20:36.898Z,16.30
2023-01-22T13:23:06.028Z,10.57
2023-01-22T13:25:33.612Z,11.35
2023-01-22T13:28:01.965Z,15.00
2023-01-22T13:30:31.153Z,14.88
2023-01-22T13:33:14.864Z,11.80
2023-01-22T13:35:43.533Z,14.30
2023-01-22T13:38:30.483Z,17.67
2023-01-22T13:40:59.847Z,14.00
2023-01-22T13:43:27.756Z,12.07
2023-01-22T13:45:55.529Z,13.75
2023-01-22T13:48:24.009Z,15.07
2023-01-22T13:50:56.378Z,12.15
2023-01-22T13:53:41.167Z,10.98
2023-01-22T13:56:13.190Z,10.23
2023-01-22T13:58:49.591Z,9.50
2023-01-22T14:01:33.427Z,12.13
2023-01-22T14:04:03.251Z,10.30
2023-01-22T14:06:30.721Z,15.50
2023-01-22T14:08:58.370Z,13.45
2023-01-22T14:11:25.597Z,10.23
2023-01-22T14:13:53.363Z,11.60
2023-01-22T14:16:20.594Z,15.43
2023-01-22T14:18:47.832Z,11.15
2023-01-22T14:21:15.263Z,12.55
2023-01-22T14:23:42.934Z,13.32
2023-01-22T14:26:10.236Z,11.73
2023-01-22T14:28:37.762Z,12.75
2023-01-22T14:31:05.386Z,11.32
2023-01-22T14:33:33.772Z,16.88
2023-01-22T14:36:01.153Z,7.60
2023-01-22T14:38:28.312Z,12.50
2023-01-22T14:40:55.440Z,15.35
2023-01-22T14:43:22.567Z,9.57
2023-01-22T14:45:49.820Z,12.00
2023-01-22T14:48:18.068Z,14.30
2023-01-22T14:50:45.692Z,11.35
2023-01-22T14:53:13.388Z,13.25
2023-01-22T14:55:42.728Z,7.97
2023-01-22T14:58:10.587Z,12.68
2023-01-22T15:00:38.629Z,12.38
2023-01-22T15:03:05.911Z,11.45
2023-01-22T15:05:35.488Z,10.40
2023-01-22T15:08:03.398Z,12.63
2023-01-22T15:10:30.749Z,12.82
2023-01-22T15:12:57.961Z,13.10
2023-01-22T15:15:28.693Z,15.27
2023-01-22T15:17:57.323Z,12.95
2023-01-22T15:20:24.552Z,11.60
2023-01-22T15:22:52.016Z,13.32
2023-01-22T15:25:19.534Z,16.60
2023-01-22T15:27:46.993Z,12.52
2023-01-22T15:30:14.791Z,15.77
2023-01-22T15:32:41.952Z,16.20
2023-01-22T15:35:09.387Z,14.40
2023-01-22T15:37:36.507Z,11.52
2023-01-22T15:40:03.713Z,17.67
2023-01-22T15:42:30.853Z,14.30
2023-01-22T15:44:58.005Z,12.63
2023-01-22T15:47:25.157Z,11.10
2023-01-22T15:49:52.270Z,15.30
2023-01-22T15:52:19.589Z,13.90
2023-01-22T15:54:46.697Z,9.25
2023-01-22T15:57:14.127Z,13.13
2023-01-22T15:59:42.257Z,17.33
2023-01-22T16:02:11.181Z,14.88
2023-01-22T16:04:38.358Z,16.75
2023-01-22T16:07:05.569Z,17.20
2023-01-22T16:09:32.753Z,15.27
2023-01-22T16:12:00.338Z,16.48
2023-01-22T16:14:29.359Z,19.10
2023-01-22T16:16:56.633Z,17.35
2023-01-22T16:19:23.778Z,13.13
2023-01-22T16:21:52.601Z,18.58
2023-01-22T16:24:19.761Z,18.08
2023-01-22T16:26:46.893Z,19.10
2023-01-22T16:29:14.118Z,17.25
2023-01-22T16:31:41.519Z,19.00
2023-01-22T16:34:10.487Z,15.25
2023-01-22T16:36:37.927Z,17.90
2023-01-22T16:39:05.554Z,19.65
2023-01-22T16:41:34.449Z,18.23
2023-01-22T16:44:05.915Z,17.27
2023-01-22T16:46:33.266Z,21.88
2023-01-22T16:49:01.712Z,17.80
2023-01-22T16:51:33.086Z,20.17
2023-01-22T16:54:00.284Z,15.93
2023-01-22T16:56:27.408Z,18.80
2023-01-22T16:58:54.509Z,15.18
2023-01-22T17:01:21.839Z,18.80
2023-01-22T17:03:49.011Z,17.80
2023-01-22T17:06:20.812Z,22.27
2023-01-22T17:08:48.521Z,16.95
2023-01-22T17:11:17.033Z,14.52
2023-01-22T17:13:44.707Z,19.90
2023-01-22T17:16:12.043Z,15.65
2023-01-22T17:18:39.278Z,18.17
2023-01-22T17:21:07.313Z,19.08
2023-01-22T17:23:34.455Z,15.43
2023-01-22T17:26:05.511Z,16.77
2023-01-22T17:28:33.116Z,19.83
2023-01-22T17:31:00.332Z,15.23
2023-01-22T17:33:27.476Z,14.40
2023-01-22T17:35:57.870Z,16.30
2023-01-22T17:38:25.109Z,11.75
2023-01-22T17:40:52.215Z,20.00
2023-01-22T17:43:19.322Z,12.95
2023-01-22T17:45:46.515Z,14.52
2023-01-22T17:48:13.587Z,15.93
2023-01-22T17:50:40.717Z,14.80
2023-01-22T17:53:07.856Z,22.15
2023-01-22T17:55:35.034Z,17.95
2023-01-22T17:58:03.995Z,16.48
2023-01-22T18:00:31.922Z,19.15
2023-01-22T18:02:59.140Z,13.45
2023-01-22T18:05:26.887Z,16.45
2023-01-22T18:07:53.957Z,9.80
2023-01-22T18:10:21.544Z,15.57
2023-01-22T18:12:49.459Z,16.70
2023-01-22T18:15:16.869Z,23.15
2023-01-22T18:17:44.505Z,20.20
2023-01-22T18:20:11.772Z,20.70
2023-01-22T18:22:38.915Z,15.13
2023-01-22T18:25:06.318Z,14.02
2023-01-22T18:27:33.396Z,18.40
2023-01-22T18:30:00.480Z,17.48
2023-01-22T18:32:27.574Z,17.15
2023-01-22T18:34:54.668Z,16.55
2023-01-22T18:37:21.761Z,17.48
2023-01-22T18:39:48.835Z,14.45
2023-01-22T18:42:16.073Z,20.98
2023-01-22T18:44:43.198Z,20.90
2023-01-22T18:47:11.424Z,17.80
2023-01-22T18:49:38.465Z,17.08
2023-01-22T18:52:05.582Z,14.32
2023-01-22T18:54:32.947Z,15.50
2023-01-22T18:57:00.037Z,19.52
2023-01-22T18:59:27.275Z,18.15
2023-01-22T19:01:54.523Z,20.02
2023-01-22T19:04:22.205Z,18.08
2023-01-22T19:06:52.160Z,17.88
2023-01-22T19:09:19.576Z,22.65
2023-01-22T19:11:47.715Z,15.48
2023-01-22T19:14:16.190Z,28.55
2023-01-22T19:16:48.672Z,25.58
2023-01-22T19:19:16.443Z,18.98
2023-01-22T19:21:47.269Z,23.40
2023-01-22T19:24:15.598Z,22.85
2023-01-22T19:26:45.933Z,18.70
2023-01-22T19:29:14.566Z,18.45
2023-01-22T19:31:43.289Z,21.13
2023-01-22T19:34:12.072Z,18.65
2023-01-22T19:36:39.631Z,20.38
2023-01-22T19:39:09.633Z,18.77
2023-01-22T19:41:37.883Z,17.67
2023-01-22T19:44:05.719Z,20.42
2023-01-22T19:46:33.026Z,22.92
2023-01-22T19:49:00.184Z,20.20
2023-01-22T19:51:27.712Z,19.20
2023-01-22T19:53:55.037Z,24.83
2023-01-22T19:56:23.629Z,21.95
2023-01-22T19:58:51.356Z,17.90
2023-01-22T20:01:18.601Z,24.10
2023-01-22T20:03:45.745Z,27.17
2023-01-22T20:06:13.473Z,19.65
2023-01-22T20:08:41.101Z,27.42
2023-01-22T20:11:09.301Z,29.60
2023-01-22T20:13:36.936Z,18.20
2023-01-22T20:16:04.697Z,19.30
2023-01-22T20:18:32.161Z,23.80
2023-01-22T20:21:00.222Z,18.98
2023-01-22T20:23:28.119Z,17.70
2023-01-22T20:25:55.917Z,24.98
2023-01-22T20:28:23.071Z,23.20
2023-01-22T20:31:04.336Z,17.33
2023-01-22T20:33:32.157Z,21.35
2023-01-22T20:36:00.805Z,19.85
2023-01-22T20:38:28.272Z,21.08
2023-01-22T20:40:55.484Z,22.75
2023-01-22T20:43:22.644Z,17.67
2023-01-22T20:45:59.730Z,17.13
2023-01-22T20:48:27.199Z,21.80
2023-01-22T20:50:54.275Z,17.13
2023-01-22T20:53:21.530Z,19.63
2023-01-22T20:55:49.162Z,21.00
2023-01-22T20:58:16.313Z,25.33
2023-01-22T21:00:43.484Z,28.50
2023-01-22T21:03:10.587Z,21.52
2023-01-22T21:05:39.512Z,25.85
2023-01-22T21:08:07.316Z,25.10
2023-01-22T21:10:34.460Z,21.10
2023-01-22T21:13:01.628Z,17.20
2023-01-22T21:15:28.868Z,22.02
2023-01-22T21:17:55.905Z,22.08
2023-01-22T21:20:22.937Z,24.67
2023-01-22T21:22:50.538Z,15.68
2023-01-22T21:25:17.706Z,22.70
2023-01-22T21:27:44.799Z,22.52
2023-01-22T21:30:12.172Z,18.55
2023-01-22T21:32:39.300Z,14.93
2023-01-22T21:35:08.513Z,19.38
2023-01-22T21:37:35.637Z,21.35
2023-01-22T21:40:02.849Z,23.52
2023-01-22T21:42:49.868Z,22.98
2023-01-22T21:45:36.955Z,21.77
2023-01-22T21:48:04.157Z,20.80
2023-01-22T21:50:31.458Z,19.63
2023-01-22T21:52:58.493Z,21.65
2023-01-22T21:55:25.718Z,24.92
2023-01-22T21:57:52.829Z,14.82
2023-01-22T22:00:20.402Z,22.25
2023-01-22T22:02:47.742Z,21.40
2023-01-22T22:05:14.944Z,21.25
2023-01-22T22:07:42.107Z,20.23
2023-01-22T22:10:12.810Z,21.58
2023-01-22T22:12:40.049Z,23.30
2023-01-22T22:15:10.121Z,22.13
2023-01-22T22:17:37.447Z,20.70
2023-01-22T22:20:06.283Z,17.85
2023-01-22T22:22:33.376Z,21.63
2023-01-22T22:25:00.449Z,16.98
2023-01-22T22:27:27.903Z,18.85
2023-01-22T22:29:55.126Z,21.50
2023-01-22T22:32:22.265Z,21.95
2023-01-22T22:34:49.663Z,22.88
2023-01-22T22:37:17.279Z,22.45
2023-01-22T22:39:44.387Z,16.63
2023-01-22T22:42:11.460Z,23.90
2023-01-22T22:44:38.534Z,24.85
2023-01-22T22:47:05.619Z,20.67
2023-01-22T22:49:32.686Z,22.23
2023-01-22T22:51:59.799Z,18.95
2023-01-22T22:54:27.646Z,25.75
2023-01-22T22:56:54.786Z,25.27
2023-01-22T22:59:21.904Z,18.55
2023-01-22T23:01:49.635Z,20.38
2023-01-22T23:04:17.192Z,17.88
2023-01-22T23:06:45.294Z,18.35
2023-01-22T23:09:13.939Z,26.25
2023-01-22T23:11:41.151Z,24.73
2023-01-22T23:14:08.905Z,21.83
2023-01-22T23:16:37.598Z,27.40
2023-01-22T23:19:06.542Z,20.35
2023-01-22T23:21:35.426Z,17.23
2023-01-22T23:24:03.467Z,21.08
2023-01-22T23:26:30.801Z,23.42
2023-01-22T23:29:00.805Z,22.98
2023-01-22T23:31:29.445Z,20.33
2023-01-22T23:33:56.782Z,21.30
2023-01-22T23:36:26.234Z,24.67
2023-01-22T23:38:53.786Z,21.95
2023-01-22T23:41:21.265Z,17.90
2023-01-22T23:43:48.692Z,13.90
2023-01-22T23:46:17.998Z,20.75
2023-01-22T23:48:45.181Z,17.35
2023-01-22T23:51:13.247Z,20.35
2023-01-22T23:53:41.589Z,20.35
2023-01-22T23:56:09.953Z,17.05
2023-01-22T23:58:37.104Z,17.98
